Time;durP1;ratioP1;P1;durP2;ratioP2;P2;SDS_P1;SDS_P2;PMS_P1;PMS_P2;Temp;Humidity;BMP_temperature;BMP_pressure;BME280_temperature;BME280_humidity;BME280_pressure;Samples;Min_cycle;Max_cycle;Signal;HPM_P1;HPM_P2
2021/08/26 00:01:09;225706.00;0.75;390.16;0.00;0.00;0.62;;;;;17.30;1.00;;;;;;2263926;61;1378;-84
2021/08/26 00:06:22;0.00;0.00;0.62;0.00;0.00;0.62;;;;;17.90;1.00;;;;;;2264178;61;1017;-84
2021/08/26 00:08:51;418267.00;1.39;721.21;49726.00;0.17;86.71;;;;;18.00;1.00;;;;;;2267425;61;1760;-85
2021/08/26 00:11:21;404171.00;1.35;696.98;0.00;0.00;0.62;;;;;18.20;1.00;;;;;;2276258;61;1363;-84
2021/08/26 00:13:50;345178.00;1.15;595.57;3910.00;0.01;7.40;;;;;18.50;1.00;;;;;;2276285;61;1113;-84
2021/08/26 00:16:18;22249.00;0.07;39.16;0.00;0.00;0.62;;;;;18.10;1.00;;;;;;2272080;61;2002;-84
2021/08/26 00:18:47;65529.00;0.22;114.03;0.00;0.00;0.62;;;;;17.70;1.00;;;;;;2274248;61;1018;-86
2021/08/26 00:21:15;140872.00;0.47;244.07;0.00;0.00;0.62;;;;;17.50;1.00;;;;;;2273629;61;1298;-85
2021/08/26 00:23:43;117673.00;0.39;204.07;0.00;0.00;0.62;;;;;17.40;1.00;;;;;;2280699;61;1165;-84
2021/08/26 00:26:11;26110.00;0.09;45.85;0.00;0.00;0.62;;;;;17.40;1.00;;;;;;2280755;61;1130;-85
2021/08/26 00:28:39;35892.00;0.12;62.78;0.00;0.00;0.62;;;;;17.40;1.00;;;;;;2280402;61;1019;-85
2021/08/26 00:31:07;31405.00;0.10;55.01;0.00;0.00;0.62;;;;;17.40;1.00;;;;;;2280499;61;1372;-85
2021/08/26 00:33:36;93800.00;0.31;162.87;0.00;0.00;0.62;;;;;17.50;1.00;;;;;;2273633;61;985;-85
2021/08/26 00:36:04;52187.00;0.17;90.97;0.00;0.00;0.62;;;;;17.50;1.00;;;;;;2280741;61;947;-85
2021/08/26 00:38:31;9838.00;0.03;17.67;0.00;0.00;0.62;;;;;17.50;1.00;;;;;;2273476;61;1934;-85
2021/08/26 00:40:59;69863.00;0.23;121.52;0.00;0.00;0.62;;;;;17.40;1.00;;;;;;2273583;61;1395;-85
2021/08/26 00:43:26;0.00;0.00;0.62;0.00;0.00;0.62;;;;;17.30;1.00;;;;;;2273261;61;1000;-85
2021/08/26 00:45:53;85202.00;0.28;148.02;0.00;0.00;0.62;;;;;17.10;1.00;;;;;;2273576;61;1009;-84
2021/08/26 00:48:21;0.00;0.00;0.62;0.00;0.00;0.62;;;;;17.20;1.00;;;;;;2280723;61;1008;-85
2021/08/26 00:50:50;18329.00;0.06;32.38;0.00;0.00;0.62;;;;;17.10;1.00;;;;;;2273515;61;1440;-84
2021/08/26 00:53:18;97603.00;0.33;169.43;0.00;0.00;0.62;;;;;17.30;1.00;;;;;;2273533;61;993;-85
2021/08/26 00:55:45;35411.00;0.12;61.95;0.00;0.00;0.62;;;;;17.40;1.00;;;;;;2280490;61;921;-84
2021/08/26 00:58:12;176323.00;0.59;305.16;0.00;0.00;0.62;;;;;17.60;1.00;;;;;;2273281;61;2009;-85
2021/08/26 01:00:41;165570.00;0.55;286.64;0.00;0.00;0.62;;;;;17.80;1.00;;;;;;2271924;61;1224;-84
2021/08/26 01:03:12;112415.00;0.37;195.00;0.00;0.00;0.62;;;;;18.00;1.00;;;;;;2265324;61;1038;-83
2021/08/26 01:05:47;46567.00;0.16;81.25;0.00;0.00;0.62;;;;;18.30;1.00;;;;;;2263927;61;976;-83
2021/08/26 01:08:20;0.00;0.00;0.62;0.00;0.00;0.62;;;;;18.60;1.00;;;;;;2257124;61;1023;-83
2021/08/26 01:10:54;0.00;0.00;0.62;0.00;0.00;0.62;;;;;18.70;1.00;;;;;;2263921;61;1454;-82
2021/08/26 01:13:21;0.00;0.00;0.62;0.00;0.00;0.62;;;;;18.70;1.00;;;;;;2257263;61;975;-85
2021/08/26 01:16:05;0.00;0.00;0.62;0.00;0.00;0.62;;;;;18.30;1.00;;;;;;2263954;61;957;-84
2021/08/26 01:18:33;0.00;0.00;0.62;0.00;0.00;0.62;;;;;17.90;1.00;;;;;;2260694;61;1935;-84
2021/08/26 01:21:00;66375.00;0.22;115.50;0.00;0.00;0.62;;;;;17.50;1.00;;;;;;2261963;61;1477;-84
2021/08/26 01:23:33;0.00;0.00;0.62;0.00;0.00;0.62;;;;;17.50;1.00;;;;;;2262955;61;976;-84
2021/08/26 01:26:02;0.00;0.00;0.62;0.00;0.00;0.62;;;;;17.80;1.00;;;;;;2267706;61;1007;-84
2021/08/26 01:28:32;0.00;0.00;0.62;0.00;0.00;0.62;;;;;18.00;1.00;;;;;;2264667;61;999;-84
2021/08/26 01:30:59;34473.00;0.11;60.32;0.00;0.00;0.62;;;;;18.20;1.00;;;;;;2265146;61;1427;-83
2021/08/26 01:33:26;0.00;0.00;0.62;0.00;0.00;0.62;;;;;18.40;1.00;;;;;;2261954;61;1005;-83
2021/08/26 01:35:53;0.00;0.00;0.62;0.00;0.00;0.62;;;;;18.10;1.00;;;;;;2261929;61;1018;-84
2021/08/26 01:38:22;136315.00;0.45;236.22;0.00;0.00;0.62;;;;;17.80;1.00;;;;;;2268516;61;1989;-84
2021/08/26 01:40:50;0.00;0.00;0.62;0.00;0.00;0.62;;;;;18.00;1.00;;;;;;2270140;61;1481;-85
2021/08/26 01:43:19;0.00;0.00;0.62;0.00;0.00;0.62;;;;;18.40;1.00;;;;;;2277275;61;1014;-84
2021/08/26 01:45:47;43130.00;0.14;75.30;0.00;0.00;0.62;;;;;18.30;1.00;;;;;;2281081;61;1124;-84
2021/08/26 01:48:16;82383.00;0.27;143.15;6147.00;0.02;11.27;;;;;18.50;1.00;;;;;;2274097;61;953;-83
2021/08/26 01:50:44;104403.00;0.35;181.17;0.00;0.00;0.62;;;;;18.60;1.00;;;;;;2274042;61;1365;-83
2021/08/26 01:53:11;79090.00;0.26;137.47;0.00;0.00;0.62;;;;;18.50;1.00;;;;;;2274079;61;985;-83
2021/08/26 01:55:38;111609.00;0.37;193.61;0.00;0.00;0.62;;;;;18.40;1.00;;;;;;2274083;61;987;-86
2021/08/26 01:58:05;9164.00;0.03;16.50;0.00;0.00;0.62;;;;;17.80;1.00;;;;;;2274044;61;1922;-84
2021/08/26 02:00:35;9983.00;0.03;17.92;0.00;0.00;0.62;;;;;17.90;1.00;;;;;;2274043;61;1317;-83
2021/08/26 02:03:02;7611.00;0.03;13.81;0.00;0.00;0.62;;;;;17.80;1.00;;;;;;2274009;61;989;-84
2021/08/26 02:05:29;83105.00;0.28;144.40;0.00;0.00;0.62;;;;;17.80;1.00;;;;;;2281234;61;959;-84
2021/08/26 02:07:56;188728.00;0.63;326.52;48319.00;0.16;84.28;;;;;17.90;1.00;;;;;;2274106;61;953;-85
2021/08/26 02:10:23;55816.00;0.19;97.24;0.00;0.00;0.62;;;;;18.30;1.00;;;;;;2281118;61;1435;-84
2021/08/26 02:12:51;71115.00;0.24;123.69;0.00;0.00;0.62;;;;;18.90;1.00;;;;;;2281158;61;1030;-85
2021/08/26 02:15:19;103743.00;0.35;180.03;0.00;0.00;0.62;;;;;19.00;1.00;;;;;;2273917;61;989;-82
2021/08/26 02:17:47;0.00;0.00;0.62;0.00;0.00;0.62;;;;;18.50;1.00;;;;;;2274025;61;1915;-84
2021/08/26 02:20:14;13558.00;0.05;24.11;0.00;0.00;0.62;;;;;18.20;1.00;;;;;;2281077;61;1354;-85
2021/08/26 02:22:41;63220.00;0.21;110.04;0.00;0.00;0.62;;;;;18.40;1.00;;;;;;2281038;61;1008;-83
2021/08/26 02:25:10;119421.00;0.40;207.08;0.00;0.00;0.62;;;;;18.40;1.00;;;;;;2274009;61;1015;-83
2021/08/26 02:27:37;28428.00;0.09;49.86;0.00;0.00;0.62;;;;;18.60;1.00;;;;;;2270656;61;1016;-83
2021/08/26 02:30:06;24247.00;0.08;42.62;0.00;0.00;0.62;;;;;18.40;1.00;;;;;;2273791;61;1243;-83
2021/08/26 02:32:33;365.00;0.00;1.25;0.00;0.00;0.62;;;;;18.80;1.00;;;;;;2281080;61;941;-83
2021/08/26 02:35:01;71663.00;0.24;124.63;0.00;0.00;0.62;;;;;18.90;1.00;;;;;;2273987;61;961;-84
2021/08/26 02:37:29;81952.00;0.27;142.41;15521.00;0.05;27.51;;;;;18.70;1.00;;;;;;2273845;61;2014;-83
2021/08/26 02:39:55;216259.00;0.72;373.91;81825.00;0.27;142.19;;;;;18.50;1.00;;;;;;2273846;61;1456;-83
2021/08/26 02:42:22;194416.00;0.65;336.31;38533.00;0.13;67.35;;;;;18.70;1.00;;;;;;2273903;61;987;-82
2021/08/26 02:44:49;0.00;0.00;0.62;0.00;0.00;0.62;;;;;18.80;1.00;;;;;;2273912;61;1012;-83
2021/08/26 02:47:16;0.00;0.00;0.62;0.00;0.00;0.62;;;;;19.00;1.00;;;;;;2273645;61;1037;-84
2021/08/26 02:52:12;80864.00;0.27;140.53;0.00;0.00;0.62;;;;;19.50;1.00;;;;;;2282601;61;1397;-84
2021/08/26 02:54:39;11851.00;0.04;21.16;0.00;0.00;0.62;;;;;19.20;1.00;;;;;;2270566;61;935;-85
2021/08/26 02:57:06;110463.00;0.37;191.63;0.00;0.00;0.62;;;;;18.50;1.00;;;;;;2273825;61;2001;-85
2021/08/26 02:59:33;0.00;0.00;0.62;0.00;0.00;0.62;;;;;18.10;1.00;;;;;;2273650;61;1428;-85
2021/08/26 03:02:00;20948.00;0.07;36.91;0.00;0.00;0.62;;;;;18.00;1.00;;;;;;2270540;61;1035;-85
2021/08/26 03:04:29;38542.00;0.13;67.37;0.00;0.00;0.62;;;;;18.10;1.00;;;;;;2280928;61;911;-86
2021/08/26 03:06:56;32670.00;0.11;57.20;0.00;0.00;0.62;;;;;18.00;1.00;;;;;;2273737;61;1002;-86
2021/08/26 03:09:25;13480.00;0.04;23.98;0.00;0.00;0.62;;;;;17.90;1.00;;;;;;2270467;61;1383;-85
2021/08/26 03:11:51;0.00;0.00;0.62;0.00;0.00;0.62;;;;;18.10;1.00;;;;;;2280715;61;1022;-85
2021/08/26 03:14:19;105849.00;0.35;183.67;0.00;0.00;0.62;;;;;18.30;1.00;;;;;;2280807;61;996;-86
2021/08/26 03:16:45;222316.00;0.74;384.33;0.00;0.00;0.62;;;;;18.00;1.00;;;;;;2280761;61;1748;-84
2021/08/26 03:19:13;127809.00;0.43;221.55;0.00;0.00;0.62;;;;;17.50;1.00;;;;;;2280662;61;2027;-86
2021/08/26 03:21:40;171438.00;0.57;296.74;0.00;0.00;0.62;;;;;17.30;1.00;;;;;;2280852;61;1142;-86
2021/08/26 03:24:07;0.00;0.00;0.62;0.00;0.00;0.62;;;;;17.30;1.00;;;;;;2280898;61;1144;-87
2021/08/26 03:26:35;33444.00;0.11;58.54;0.00;0.00;0.62;;;;;17.20;1.00;;;;;;2280856;61;1047;-86
2021/08/26 03:29:04;452568.00;1.51;780.20;25712.00;0.09;45.16;;;;;17.00;1.00;;;;;;2280936;61;1086;-86
2021/08/26 03:31:31;0.00;0.00;0.62;0.00;0.00;0.62;;;;;17.00;1.00;;;;;;2280885;61;1161;-86
2021/08/26 03:33:58;38533.00;0.13;67.35;0.00;0.00;0.62;;;;;17.00;1.00;;;;;;2280716;61;1014;-86
2021/08/26 03:36:27;74559.00;0.25;129.64;0.00;0.00;0.62;;;;;16.80;1.00;;;;;;2280638;61;1684;-85
2021/08/26 03:38:55;0.00;0.00;0.62;0.00;0.00;0.62;;;;;16.60;1.00;;;;;;2280831;61;1906;-85
2021/08/26 03:41:22;80249.00;0.27;139.47;0.00;0.00;0.62;;;;;16.90;1.00;;;;;;2280784;61;1291;-86
2021/08/26 03:43:51;124881.00;0.42;216.50;57721.00;0.19;100.54;;;;;17.00;1.00;;;;;;2280843;61;1081;-86
2021/08/26 03:46:19;29777.00;0.10;52.20;0.00;0.00;0.62;;;;;17.40;1.00;;;;;;2280825;61;1143;-86
2021/08/26 03:48:46;37901.00;0.13;66.26;0.00;0.00;0.62;;;;;17.20;1.00;;;;;;2280773;61;1317;-86
2021/08/26 03:51:13;38863.00;0.13;67.92;0.00;0.00;0.62;;;;;17.00;1.00;;;;;;2280697;61;1425;-85
2021/08/26 03:53:40;73937.00;0.25;128.56;0.00;0.00;0.62;;;;;16.80;1.00;;;;;;2280422;61;1008;-86
2021/08/26 03:56:07;46906.00;0.16;81.84;0.00;0.00;0.62;;;;;17.00;1.00;;;;;;2280832;61;1013;-86
2021/08/26 03:58:34;233563.00;0.78;403.68;27451.00;0.09;48.17;;;;;16.70;1.00;;;;;;2280666;61;2009;-87
2021/08/26 04:01:05;118917.00;0.40;206.21;0.00;0.00;0.62;;;;;16.70;1.00;;;;;;2280782;61;1403;-86
2021/08/26 04:03:32;129113.00;0.43;223.80;0.00;0.00;0.62;;;;;16.80;1.00;;;;;;2280785;61;1003;-87
2021/08/26 04:06:00;29408.00;0.10;51.56;0.00;0.00;0.62;;;;;17.10;1.00;;;;;;2280721;61;1157;-85
2021/08/26 04:08:27;118008.00;0.39;204.65;0.00;0.00;0.62;;;;;17.20;1.00;;;;;;2280748;61;998;-85
2021/08/26 04:10:54;179148.00;0.60;310.02;0.00;0.00;0.62;;;;;17.60;1.00;;;;;;2280726;61;1398;-86
2021/08/26 04:13:21;17353.00;0.06;30.69;0.00;0.00;0.62;;;;;18.00;1.00;;;;;;2280734;61;1110;-86
2021/08/26 04:15:48;238053.00;0.79;411.40;40488.00;0.13;70.73;;;;;18.70;1.00;;;;;;2280699;61;1620;-86
2021/08/26 04:18:17;23732.00;0.08;41.73;0.00;0.00;0.62;;;;;19.10;1.00;;;;;;2280690;61;1997;-86
2021/08/26 04:20:45;62109.00;0.21;108.12;0.00;0.00;0.62;;;;;19.50;1.00;;;;;;2280703;61;1274;-85
2021/08/26 04:23:12;92564.00;0.31;160.73;0.00;0.00;0.62;;;;;19.20;1.00;;;;;;2280702;61;962;-86
2021/08/26 04:25:39;35908.00;0.12;62.81;0.00;0.00;0.62;;;;;19.00;1.00;;;;;;2280725;61;914;-86
2021/08/26 04:28:07;113874.00;0.38;197.51;0.00;0.00;0.62;;;;;18.30;1.00;;;;;;2280672;61;1130;-86
2021/08/26 04:30:34;90583.00;0.30;157.31;0.00;0.00;0.62;;;;;18.10;1.00;;;;;;2280611;61;1311;-86
2021/08/26 04:33:02;61260.00;0.20;106.65;0.00;0.00;0.62;;;;;18.40;1.00;;;;;;2280705;61;925;-86
2021/08/26 04:35:31;0.00;0.00;0.62;0.00;0.00;0.62;;;;;18.80;1.00;;;;;;2280705;61;929;-86
2021/08/26 04:37:58;0.00;0.00;0.62;0.00;0.00;0.62;;;;;19.30;1.00;;;;;;2280622;61;1911;-85
2021/08/26 04:40:25;73751.00;0.25;128.24;0.00;0.00;0.62;;;;;19.40;1.00;;;;;;2280643;61;1246;-85
2021/08/26 04:42:51;83728.00;0.28;145.48;0.00;0.00;0.62;;;;;19.00;1.00;;;;;;2280643;61;1102;-86
2021/08/26 04:45:18;14391.00;0.05;25.56;0.00;0.00;0.62;;;;;18.70;1.00;;;;;;2280609;61;1728;-85
2021/08/26 04:47:45;76387.00;0.25;132.80;0.00;0.00;0.62;;;;;18.60;1.00;;;;;;2280654;61;1008;-85
2021/08/26 04:50:13;0.00;0.00;0.62;0.00;0.00;0.62;;;;;18.50;1.00;;;;;;2280544;61;1360;-86
2021/08/26 04:52:42;18145.00;0.06;32.06;0.00;0.00;0.62;;;;;18.40;1.00;;;;;;2280642;61;1007;-86
2021/08/26 04:55:09;27718.00;0.09;48.63;0.00;0.00;0.62;;;;;18.40;1.00;;;;;;2280637;61;941;-87
2021/08/26 04:57:36;0.00;0.00;0.62;0.00;0.00;0.62;;;;;18.70;1.00;;;;;;2280606;61;1918;-86
2021/08/26 05:00:05;130509.00;0.44;226.21;52672.00;0.18;91.81;;;;;19.10;1.00;;;;;;2280586;61;1392;-86
2021/08/26 05:02:31;59680.00;0.20;103.92;0.00;0.00;0.62;;;;;18.70;1.00;;;;;;2280586;61;1008;-86
2021/08/26 05:04:58;70228.00;0.23;122.15;0.00;0.00;0.62;;;;;18.50;1.00;;;;;;2280496;61;1086;-84
2021/08/26 05:07:25;58080.00;0.19;101.16;0.00;0.00;0.62;;;;;18.40;1.00;;;;;;2280389;61;988;-86
2021/08/26 05:09:54;47553.00;0.16;82.95;0.00;0.00;0.62;;;;;18.60;1.00;;;;;;2280545;61;1353;-86
2021/08/26 05:12:21;339567.00;1.13;585.93;114020.00;0.38;197.77;;;;;18.80;1.00;;;;;;2270138;61;1034;-86
2021/08/26 05:14:49;45044.00;0.15;78.61;0.00;0.00;0.62;;;;;19.00;1.00;;;;;;2273427;61;1013;-86
2021/08/26 05:17:17;29266.00;0.10;51.31;0.00;0.00;0.62;;;;;19.00;1.00;;;;;;2280050;61;949;-86
2021/08/26 05:19:44;32878.00;0.11;57.56;0.00;0.00;0.62;;;;;19.40;1.00;;;;;;2273400;61;1924;-87
2021/08/26 05:22:11;12036.00;0.04;21.48;0.00;0.00;0.62;;;;;19.70;1.00;;;;;;2280045;61;1145;-86
2021/08/26 05:24:38;37349.00;0.12;65.30;0.00;0.00;0.62;;;;;19.40;1.00;;;;;;2280584;61;935;-86
2021/08/26 05:27:07;61269.00;0.20;106.67;0.00;0.00;0.62;;;;;18.90;1.00;;;;;;2280557;61;925;-86
2021/08/26 05:29:33;36408.00;0.12;63.67;0.00;0.00;0.62;;;;;18.50;1.00;;;;;;2280153;61;1367;-87
2021/08/26 05:32:00;0.00;0.00;0.62;0.00;0.00;0.62;;;;;18.20;1.00;;;;;;2280283;61;959;-87
2021/08/26 05:34:27;5011.00;0.02;9.30;0.00;0.00;0.62;;;;;18.10;1.00;;;;;;2280535;61;1016;-86
2021/08/26 05:36:54;23359.00;0.08;41.09;0.00;0.00;0.62;;;;;18.30;1.00;;;;;;2280547;61;1041;-87
2021/08/26 05:39:21;297971.00;0.99;514.43;111601.00;0.37;193.59;;;;;18.70;1.00;;;;;;2270071;61;1914;-86
2021/08/26 05:41:48;8352.00;0.03;15.09;0.00;0.00;0.62;;;;;18.90;1.00;;;;;;2273397;61;1011;-86
2021/08/26 05:44:18;67722.00;0.23;117.82;0.00;0.00;0.62;;;;;19.00;1.00;;;;;;2280503;61;938;-86
2021/08/26 05:46:46;73353.00;0.24;127.55;0.00;0.00;0.62;;;;;19.00;1.00;;;;;;2280478;61;937;-85
2021/08/26 05:49:13;113328.00;0.38;196.57;0.00;0.00;0.62;;;;;18.90;1.00;;;;;;2269876;61;1361;-86
2021/08/26 05:51:41;0.00;0.00;0.62;0.00;0.00;0.62;;;;;19.10;1.00;;;;;;2280357;61;934;-85
2021/08/26 05:54:08;106626.00;0.36;185.01;0.00;0.00;0.62;;;;;18.80;1.00;;;;;;2269956;61;1009;-85
2021/08/26 05:56:35;6753.00;0.02;12.32;0.00;0.00;0.62;;;;;19.00;1.00;;;;;;2269944;61;1006;-86
2021/08/26 05:59:02;0.00;0.00;0.62;0.00;0.00;0.62;;;;;19.10;1.00;;;;;;2269917;61;2005;-84
2021/08/26 06:01:31;37001.00;0.12;64.70;0.00;0.00;0.62;;;;;19.50;1.00;;;;;;2269889;61;1409;-85
2021/08/26 06:03:58;59886.00;0.20;104.28;0.00;0.00;0.62;;;;;19.90;1.00;;;;;;2269992;61;971;-86
2021/08/26 06:06:25;38990.00;0.13;68.14;0.00;0.00;0.62;;;;;20.20;1.00;;;;;;2280291;61;989;-86
2021/08/26 06:08:52;229619.00;0.77;396.89;12607.00;0.04;22.47;;;;;19.80;1.00;;;;;;2280337;61;1106;-86
2021/08/26 06:11:19;44017.00;0.15;76.84;0.00;0.00;0.62;;;;;20.00;1.00;;;;;;2280427;61;1367;-87
2021/08/26 06:13:46;232670.00;0.78;402.14;20172.00;0.07;35.57;;;;;19.80;1.00;;;;;;2280410;61;1088;-87
2021/08/26 06:16:13;265762.00;0.89;459.06;26377.00;0.09;46.31;;;;;19.60;1.00;;;;;;2280816;61;963;-87
2021/08/26 06:18:41;81501.00;0.27;141.63;0.00;0.00;0.62;;;;;19.70;1.00;;;;;;2270602;61;1910;-86
2021/08/26 06:21:10;25172.00;0.08;44.23;0.00;0.00;0.62;;;;;19.70;1.00;;;;;;2270624;61;1467;-87
2021/08/26 06:23:37;154185.00;0.51;267.02;0.00;0.00;0.62;;;;;19.80;1.00;;;;;;2280587;61;1096;-87
2021/08/26 06:26:04;0.00;0.00;0.62;0.00;0.00;0.62;;;;;20.20;1.00;;;;;;2281087;61;1006;-86
2021/08/26 06:28:31;128981.00;0.43;223.57;0.00;0.00;0.62;;;;;20.50;1.00;;;;;;2270592;61;1025;-87
2021/08/26 06:30:58;20858.00;0.07;36.76;0.00;0.00;0.62;;;;;20.60;1.00;;;;;;2280951;61;1423;-86
2021/08/26 06:33:24;0.00;0.00;0.62;0.00;0.00;0.62;;;;;20.70;1.00;;;;;;2280718;61;941;-86
2021/08/26 06:35:53;0.00;0.00;0.62;0.00;0.00;0.62;;;;;20.90;1.00;;;;;;2281013;61;1055;-85
2021/08/26 06:38:20;8031.00;0.03;14.54;0.00;0.00;0.62;;;;;20.70;1.00;;;;;;2280945;61;2000;-86
2021/08/26 06:40:47;0.00;0.00;0.62;0.00;0.00;0.62;;;;;20.70;1.00;;;;;;2280977;61;1366;-86
2021/08/26 06:43:14;81002.00;0.27;140.77;0.00;0.00;0.62;;;;;20.80;1.00;;;;;;2270470;61;978;-87
2021/08/26 06:45:41;43060.00;0.14;75.18;0.00;0.00;0.62;;;;;20.60;1.00;;;;;;2280744;61;1102;-86
2021/08/26 06:48:08;89866.00;0.30;156.08;17019.00;0.06;30.11;;;;;20.80;1.00;;;;;;2280853;61;1123;-88
2021/08/26 06:50:35;81072.00;0.27;140.89;0.00;0.00;0.62;;;;;21.00;1.00;;;;;;2268202;61;1300;-86
2021/08/26 06:53:03;62421.00;0.21;108.66;0.00;0.00;0.62;;;;;20.70;1.00;;;;;;2268180;61;1016;-86
2021/08/26 06:55:30;21251.00;0.07;37.44;0.00;0.00;0.62;;;;;20.10;1.00;;;;;;2267954;61;985;-86
2021/08/26 06:57:57;202382.00;0.67;350.02;9472.00;0.03;17.03;;;;;20.00;1.00;;;;;;2268149;61;1103;-86
2021/08/26 07:00:24;1186.00;0.00;2.68;0.00;0.00;0.62;;;;;20.10;1.00;;;;;;2264672;61;1970;-86
2021/08/26 07:02:52;99106.00;0.33;172.03;32858.00;0.11;57.53;;;;;20.40;1.00;;;;;;2268239;61;1021;-87
2021/08/26 07:05:20;0.00;0.00;0.62;0.00;0.00;0.62;;;;;20.70;1.00;;;;;;2268406;61;1003;-87
2021/08/26 07:07:46;67764.00;0.23;117.90;0.00;0.00;0.62;;;;;20.80;1.00;;;;;;2269878;61;1011;-86
2021/08/26 07:10:15;57670.00;0.19;100.45;0.00;0.00;0.62;;;;;20.50;1.00;;;;;;2280874;61;1352;-87
2021/08/26 07:12:42;0.00;0.00;0.62;0.00;0.00;0.62;;;;;20.60;1.00;;;;;;2280814;61;1030;-86
2021/08/26 07:15:09;0.00;0.00;0.62;0.00;0.00;0.62;;;;;20.70;1.00;;;;;;2280027;61;1057;-86
2021/08/26 09:48:14;250061.00;0.83;432.06;0.00;0.00;0.62;;;;;15.60;11.60;;;;;;2528265;40;3570;31
2021/08/26 09:53:10;256526.00;0.86;443.17;34905.00;0.12;61.07;;;;;19.90;1.00;;;;;;2285888;61;992;-85
2021/08/26 09:58:13;156741.00;0.52;271.42;0.00;0.00;0.62;;;;;19.80;1.00;;;;;;2288158;60;1325;-85
2021/08/26 10:05:42;251047.00;0.84;433.75;77557.00;0.26;134.82;;;;;20.40;1.00;;;;;;2285830;61;1319;-86
2021/08/26 10:10:39;199332.00;0.66;344.77;83318.00;0.28;144.77;;;;;21.20;1.00;;;;;;2289863;60;1321;-84
2021/08/26 10:15:35;350368.00;1.17;604.49;75239.00;0.25;130.81;;;;;21.20;1.00;;;;;;2285769;61;1938;-86
2021/08/26 10:30:31;320215.00;1.07;552.67;79452.00;0.26;138.09;;;;;21.70;1.00;;;;;;2296922;60;970;-85
2021/08/26 10:35:26;157652.00;0.53;272.99;0.00;0.00;0.62;;;;;21.30;1.00;;;;;;2290311;60;1894;-85
2021/08/26 12:58:25;281057.00;0.94;485.35;74825.00;0.25;130.10;;;;;22.70;1.00;;;;;;2290420;60;1253;-84
2021/08/26 13:00:52;172059.00;0.57;297.81;0.00;0.00;0.62;;;;;22.70;1.00;;;;;;2288785;60;1021;-84
2021/08/26 13:03:19;174289.00;0.58;301.65;0.00;0.00;0.62;;;;;22.60;1.00;;;;;;2280451;60;993;-82
2021/08/26 13:05:48;289147.00;0.96;499.26;76173.00;0.25;132.43;;;;;22.50;1.00;;;;;;2280443;60;925;-83
2021/08/26 13:10:44;172777.00;0.58;299.05;82210.00;0.27;142.85;;;;;22.80;1.00;;;;;;2290485;60;1419;-84
2021/08/26 13:13:14;216728.00;0.72;374.71;76219.00;0.25;132.51;;;;;22.70;1.00;;;;;;2285064;60;990;-83
2021/08/26 13:18:11;377269.00;1.26;650.73;69955.00;0.23;121.68;;;;;23.00;1.00;;;;;;2288763;60;1407;-85
2021/08/26 13:20:38;266687.00;0.89;460.65;76432.00;0.25;132.87;;;;;23.00;1.00;;;;;;2277288;60;1022;-82
2021/08/26 13:23:09;257015.00;0.86;444.02;73370.00;0.24;127.58;;;;;23.00;1.00;;;;;;2274235;60;1051;-85
2021/08/26 13:32:59;224484.00;0.75;388.06;73671.00;0.25;128.10;;;;;23.00;1.00;;;;;;2290004;60;1143;-82
2021/08/26 13:35:28;384188.00;1.28;662.62;77598.00;0.26;134.89;;;;;22.80;1.00;;;;;;2281344;60;1010;-82
2021/08/26 13:37:56;221962.00;0.74;383.72;82176.00;0.27;142.80;;;;;22.90;1.00;;;;;;2288580;60;2000;-84
2021/08/26 13:40:24;410240.00;1.37;707.41;108929.00;0.36;188.98;;;;;23.10;1.00;;;;;;2288543;60;1032;-83
2021/08/26 13:45:20;270823.00;0.90;467.76;74924.00;0.25;130.27;;;;;23.00;1.00;;;;;;2290696;60;1990;-86
2021/08/26 13:47:47;506215.00;1.69;872.52;187026.00;0.62;323.59;;;;;23.10;1.00;;;;;;2288420;60;1434;-84
2021/08/26 13:52:43;275151.00;0.92;475.20;78914.00;0.26;137.16;;;;;22.90;1.00;;;;;;2290138;60;1225;-83
2021/08/26 13:57:38;351511.00;1.17;606.46;78779.00;0.26;136.93;;;;;22.70;1.00;;;;;;2288848;60;1964;-84
2021/08/26 14:00:06;345184.00;1.15;595.58;69976.00;0.23;121.72;;;;;23.00;1.00;;;;;;2284411;60;1025;-85
2021/08/26 14:05:01;427069.00;1.42;736.35;83484.00;0.28;145.06;;;;;23.30;1.00;;;;;;2289749;60;1279;-87
2021/08/26 14:17:20;333072.00;1.11;574.77;69336.00;0.23;120.61;;;;;23.00;1.00;;;;;;2527284;39;3488;31
2021/08/26 14:22:15;247520.00;0.83;427.69;66647.00;0.22;115.97;;;;;22.30;1.00;;;;;;2290307;60;1194;-83
2021/08/26 14:24:42;314536.00;1.05;542.91;83266.00;0.28;144.68;;;;;21.80;1.00;;;;;;2278695;60;1014;-83
2021/08/26 14:27:13;174730.00;0.58;302.41;80697.00;0.27;140.24;;;;;21.80;1.00;;;;;;2276259;61;1344;-83
2021/08/26 15:35:16;169989.00;0.57;294.25;0.00;0.00;0.62;;;;;22.10;1.00;;;;;;2291163;60;969;-84
2021/08/26 15:37:44;25050.00;0.08;44.01;0.00;0.00;0.62;;;;;22.50;1.00;;;;;;2288357;60;1911;-83
2021/08/26 16:00:24;71409.00;0.24;124.20;0.00;0.00;0.62;;;;;23.40;1.00;;;;;;2271887;61;1371;-90
2021/08/26 16:03:01;313521.00;1.05;541.16;0.00;0.00;0.62;;;;;23.20;1.00;;;;;;2272048;61;1532;-91
2021/08/26 16:05:29;436964.00;1.46;753.36;77139.00;0.26;134.10;;;;;22.90;1.00;;;;;;2272005;61;1349;-91
2021/08/26 16:08:01;369541.00;1.23;637.45;68548.00;0.23;119.25;;;;;22.60;1.00;;;;;;2271992;61;1609;-89
2021/08/26 16:10:49;400089.00;1.33;689.96;79471.00;0.26;138.12;;;;;22.50;1.00;;;;;;2271807;61;1768;-92
2021/08/26 16:13:21;568035.00;1.89;979.06;59790.00;0.20;104.11;;;;;22.50;1.00;;;;;;2268821;61;1514;-90
2021/08/26 16:15:49;1081376.00;3.60;1877.15;61555.00;0.21;107.16;;;;;22.80;1.00;;;;;;2271843;61;1649;-90
2021/08/26 16:18:21;536274.00;1.79;924.30;0.00;0.00;0.62;;;;;23.00;1.00;;;;;;2271919;61;1926;-91
2021/08/26 16:20:55;588246.00;1.96;1013.93;783.00;0.00;1.98;;;;;23.30;1.00;;;;;;2271886;61;1770;-91
2021/08/26 16:23:31;751872.00;2.51;1297.31;0.00;0.00;0.62;;;;;23.40;1.00;;;;;;2271865;61;1594;-91
2021/08/26 16:25:58;597988.00;1.99;1030.75;0.00;0.00;0.62;;;;;23.40;1.00;;;;;;2271891;61;955;-91
2021/08/26 16:28:30;664725.00;2.22;1146.12;0.00;0.00;0.62;;;;;23.10;1.00;;;;;;2271911;61;1558;-90
2021/08/26 16:31:06;238495.00;0.79;412.16;0.00;0.00;0.62;;;;;23.00;1.00;;;;;;2271848;61;1141;-91
2021/08/26 16:33:40;213596.00;0.71;369.32;0.00;0.00;0.62;;;;;23.10;1.00;;;;;;2271798;61;1558;-91
2021/08/26 16:36:22;97559.00;0.33;169.36;0.00;0.00;0.62;;;;;23.20;1.00;;;;;;2271792;61;2044;-91
2021/08/26 16:38:49;295204.00;0.98;509.68;0.00;0.00;0.62;;;;;23.20;1.00;;;;;;2284676;60;918;-88
2021/08/26 16:41:21;47340.00;0.16;82.59;0.00;0.00;0.62;;;;;23.10;1.00;;;;;;2280729;60;953;-87
2021/08/26 16:43:49;61322.00;0.20;106.76;0.00;0.00;0.62;;;;;23.00;1.00;;;;;;2284550;60;1705;-87
2021/08/26 16:46:17;31716.00;0.11;55.55;0.00;0.00;0.62;;;;;23.10;1.00;;;;;;2284476;60;1078;-87
2021/08/26 16:48:44;159236.00;0.53;275.72;0.00;0.00;0.62;;;;;23.20;1.00;;;;;;2284583;60;1142;-87
2021/08/26 16:51:11;18465.00;0.06;32.61;0.00;0.00;0.62;;;;;23.30;1.00;;;;;;2284640;60;1060;-87
2021/08/26 16:53:38;24624.00;0.08;43.28;0.00;0.00;0.62;;;;;23.30;1.00;;;;;;2284579;60;1383;-88
2021/08/26 16:56:05;27523.00;0.09;48.30;0.00;0.00;0.62;;;;;23.30;1.00;;;;;;2284583;60;1107;-87
2021/08/26 16:58:33;63098.00;0.21;109.83;0.00;0.00;0.62;;;;;23.30;1.00;;;;;;2279927;61;2005;-88
2021/08/26 17:01:01;36628.00;0.12;64.05;0.00;0.00;0.62;;;;;23.30;1.00;;;;;;2280014;61;1101;-87
2021/08/26 17:03:30;27301.00;0.09;47.91;0.00;0.00;0.62;;;;;23.20;1.00;;;;;;2280022;61;1396;-87
2021/08/26 17:06:00;10618.00;0.04;19.02;0.00;0.00;0.62;;;;;23.30;1.00;;;;;;2279974;61;1077;-88
2021/08/26 17:08:27;124472.00;0.41;215.80;43393.00;0.14;75.76;;;;;23.20;1.00;;;;;;2279989;61;1734;-87
2021/08/26 17:10:54;50415.00;0.17;87.90;0.00;0.00;0.62;;;;;23.40;1.00;;;;;;2269890;61;1007;-87
2021/08/26 17:13:21;121730.00;0.41;211.07;0.00;0.00;0.62;;;;;23.40;1.00;;;;;;2279961;61;1301;-87
2021/08/26 17:15:48;139763.00;0.47;242.16;0.00;0.00;0.62;;;;;23.20;1.00;;;;;;2280694;60;1125;-88
2021/08/26 17:18:17;415333.00;1.38;716.17;35216.00;0.12;61.61;;;;;23.10;1.00;;;;;;2284540;60;1924;-88
2021/08/26 17:20:45;47144.00;0.16;82.25;0.00;0.00;0.62;;;;;23.00;1.00;;;;;;2284517;60;1097;-88
2021/08/26 17:23:12;55606.00;0.19;96.88;0.00;0.00;0.62;;;;;23.00;1.00;;;;;;2284550;60;1083;-89
2021/08/26 17:25:40;153666.00;0.51;266.13;0.00;0.00;0.62;;;;;23.00;1.00;;;;;;2284491;60;1331;-88
2021/08/26 17:28:07;59169.00;0.20;103.04;0.00;0.00;0.62;;;;;22.90;1.00;;;;;;2284517;60;1188;-88
2021/08/26 17:30:35;60126.00;0.20;104.69;0.00;0.00;0.62;;;;;22.90;1.00;;;;;;2284425;60;1544;-89
2021/08/26 17:33:02;52860.00;0.18;92.13;0.00;0.00;0.62;;;;;22.90;1.00;;;;;;2284499;60;1234;-88
2021/08/26 17:35:30;53249.00;0.18;92.80;0.00;0.00;0.62;;;;;22.80;1.00;;;;;;2284504;60;1392;-89